createdAt,value
2018-08-17T00:00:43.014Z,23.67
2018-08-17T00:03:11.982Z,24.14
2018-08-17T00:05:41.050Z,23.85
2018-08-17T00:08:09.962Z,24.15
2018-08-17T00:10:38.982Z,24.08
2018-08-17T00:13:07.969Z,24.10
2018-08-17T00:15:36.978Z,22.76
2018-08-17T00:18:05.973Z,22.23
2018-08-17T00:20:35.013Z,22.34
2018-08-17T00:23:04.001Z,22.10
2018-08-17T00:25:33.018Z,22.26
2018-08-17T00:28:01.949Z,22.78
2018-08-17T00:30:30.969Z,22.56
2018-08-17T00:32:59.917Z,23.44
2018-08-17T00:35:28.945Z,23.62
2018-08-17T00:37:57.934Z,23.50
2018-08-17T00:40:27.017Z,23.87
2018-08-17T00:42:56.026Z,23.31
2018-08-17T00:45:25.066Z,23.34
2018-08-17T00:47:53.961Z,23.02
2018-08-17T00:50:22.977Z,23.62
2018-08-17T00:52:51.889Z,23.62
2018-08-17T00:55:20.866Z,23.67
2018-08-17T00:57:49.804Z,23.58
2018-08-17T01:00:18.850Z,23.54
2018-08-17T01:02:47.859Z,23.99
2018-08-17T01:05:17.839Z,23.85
2018-08-17T01:07:46.750Z,23.64
2018-08-17T01:10:15.730Z,23.37
2018-08-17T01:12:44.717Z,23.45
2018-08-17T01:15:13.679Z,23.59
2018-08-17T01:17:43.090Z,23.20
2018-08-17T01:20:13.224Z,23.34
2018-08-17T01:22:42.517Z,23.43
2018-08-17T01:25:11.593Z,23.05
2018-08-17T01:27:40.593Z,22.57
2018-08-17T01:30:10.117Z,23.03
2018-08-17T01:32:39.261Z,22.81
2018-08-17T01:35:08.455Z,22.66
2018-08-17T01:37:37.521Z,23.35
2018-08-17T01:40:06.548Z,22.84
2018-08-17T01:42:35.547Z,22.68
2018-08-17T01:45:04.630Z,23.25
2018-08-17T01:47:33.577Z,22.96
2018-08-17T01:50:02.585Z,22.70
2018-08-17T01:52:31.558Z,22.82
2018-08-17T01:55:00.561Z,22.84
2018-08-17T01:57:29.541Z,22.66
2018-08-17T01:59:58.518Z,22.64
2018-08-17T02:02:27.590Z,23.02
2018-08-17T02:04:56.520Z,22.82
2018-08-17T02:07:25.558Z,23.10
2018-08-17T02:09:54.463Z,22.85
2018-08-17T02:12:23.432Z,22.65
2018-08-17T02:14:52.457Z,22.82
2018-08-17T02:17:21.432Z,22.53
2018-08-17T02:19:50.346Z,22.85
2018-08-17T02:22:19.337Z,22.47
2018-08-17T02:24:48.279Z,22.71
2018-08-17T02:27:17.241Z,21.87
2018-08-17T02:29:46.152Z,22.51
2018-08-17T02:32:15.131Z,22.73
2018-08-17T02:34:44.068Z,21.87
2018-08-17T02:37:13.068Z,21.67
2018-08-17T02:39:42.191Z,21.72
2018-08-17T02:42:11.174Z,22.08
2018-08-17T02:44:40.251Z,22.25
2018-08-17T02:47:09.244Z,21.67
2018-08-17T02:49:38.161Z,21.24
2018-08-17T02:52:07.201Z,21.80
2018-08-17T02:54:36.190Z,21.85
2018-08-17T02:57:05.226Z,22.43
2018-08-17T02:59:34.294Z,22.27
2018-08-17T03:02:03.256Z,22.16
2018-08-17T03:04:32.149Z,21.87
2018-08-17T03:07:01.230Z,22.12
2018-08-17T03:09:30.149Z,22.02
2018-08-17T03:11:59.152Z,21.88
2018-08-17T03:14:28.078Z,22.28
2018-08-17T03:16:57.055Z,21.53
2018-08-17T03:19:26.090Z,21.46
2018-08-17T03:21:55.110Z,21.38
2018-08-17T03:24:24.084Z,21.33
2018-08-17T03:26:53.093Z,20.73
2018-08-17T03:29:22.071Z,20.84
2018-08-17T03:31:51.017Z,21.00
2018-08-17T03:34:19.941Z,21.63
2018-08-17T03:36:48.983Z,21.34
2018-08-17T03:39:17.952Z,20.86
2018-08-17T03:41:47.031Z,20.80
2018-08-17T03:44:15.953Z,21.39
2018-08-17T03:46:45.019Z,21.88
2018-08-17T03:49:13.922Z,21.95
2018-08-17T03:51:43.008Z,21.55
2018-08-17T03:54:11.982Z,21.51
2018-08-17T03:56:41.038Z,22.13
2018-08-17T03:59:10.070Z,20.45
2018-08-17T04:01:38.984Z,19.83
2018-08-17T04:04:08.554Z,19.87
2018-08-17T04:06:37.542Z,20.07
2018-08-17T04:09:08.227Z,19.79
2018-08-17T04:11:37.190Z,19.87
2018-08-17T04:14:06.169Z,21.07
2018-08-17T04:16:35.092Z,21.21
2018-08-17T04:19:04.038Z,21.21
2018-08-17T04:21:33.006Z,21.12
2018-08-17T04:24:02.053Z,21.26
2018-08-17T04:26:31.034Z,21.54
2018-08-17T04:28:59.978Z,19.98
2018-08-17T04:31:28.978Z,20.47
2018-08-17T04:33:58.054Z,20.43
2018-08-17T04:36:26.960Z,20.21
2018-08-17T04:38:55.897Z,19.70
2018-08-17T04:41:25.184Z,20.03
2018-08-17T04:43:54.354Z,20.29
2018-08-17T04:46:23.718Z,20.35
2018-08-17T04:48:52.762Z,20.52
2018-08-17T04:51:22.104Z,20.65
2018-08-17T04:53:51.529Z,21.08
2018-08-17T04:56:21.022Z,20.95
2018-08-17T04:58:50.382Z,21.08
2018-08-17T05:01:19.928Z,21.38
2018-08-17T05:03:49.399Z,21.61
2018-08-17T05:06:18.852Z,21.97
2018-08-17T05:08:48.278Z,21.68
2018-08-17T05:11:17.904Z,22.12
2018-08-17T05:13:47.270Z,22.22
2018-08-17T05:16:16.768Z,21.96
2018-08-17T05:18:46.212Z,22.26
2018-08-17T05:21:15.415Z,21.64
2018-08-17T05:23:44.465Z,22.06
2018-08-17T05:26:13.648Z,22.17
2018-08-17T05:28:42.884Z,21.94
2018-08-17T05:31:12.095Z,22.05
2018-08-17T05:33:41.330Z,21.95
2018-08-17T05:36:10.538Z,22.43
2018-08-17T05:38:40.217Z,22.19
2018-08-17T05:41:09.390Z,22.32
2018-08-17T05:43:38.478Z,22.40
2018-08-17T05:46:08.480Z,22.65
2018-08-17T05:48:37.717Z,23.13
2018-08-17T05:51:06.932Z,23.44
2018-08-17T05:53:36.111Z,23.78
2018-08-17T05:56:05.264Z,23.94
2018-08-17T05:58:34.474Z,24.43
2018-08-17T06:01:03.707Z,24.43
2018-08-17T06:03:33.029Z,24.81
2018-08-17T06:06:02.161Z,24.53
2018-08-17T06:08:31.313Z,24.90
2018-08-17T06:11:00.539Z,24.79
2018-08-17T06:13:29.735Z,24.94
2018-08-17T06:15:58.905Z,24.70
2018-08-17T06:18:28.215Z,24.18
2018-08-17T06:20:57.622Z,24.16
2018-08-17T06:23:26.795Z,23.80
2018-08-17T06:25:56.075Z,24.07
2018-08-17T06:28:25.300Z,23.93
2018-08-17T06:30:54.456Z,24.05
2018-08-17T06:33:23.673Z,24.37
2018-08-17T06:35:52.854Z,24.45
2018-08-17T06:38:22.106Z,24.56
2018-08-17T06:40:51.254Z,24.77
2018-08-17T06:43:20.499Z,24.36
2018-08-17T06:45:49.690Z,24.57
2018-08-17T06:48:18.885Z,24.76
2018-08-17T06:50:48.200Z,24.61
2018-08-17T06:53:17.274Z,24.79
2018-08-17T06:55:46.444Z,24.87
2018-08-17T06:58:15.576Z,24.77
2018-08-17T07:00:44.817Z,25.21
2018-08-17T07:03:14.002Z,25.17
2018-08-17T07:05:43.271Z,25.36
2018-08-17T07:08:12.416Z,25.47
2018-08-17T07:10:41.587Z,25.10
2018-08-17T07:13:10.790Z,24.64
2018-08-17T07:15:40.000Z,24.81
2018-08-17T07:18:09.165Z,25.35
2018-08-17T07:20:38.339Z,25.41
2018-08-17T07:23:07.799Z,25.31
2018-08-17T07:25:37.070Z,25.45
2018-08-17T07:28:06.308Z,25.54
2018-08-17T07:30:35.554Z,26.20
2018-08-17T07:33:04.837Z,26.02
2018-08-17T07:35:34.106Z,25.41
2018-08-17T07:38:03.268Z,26.34
2018-08-17T07:40:32.540Z,25.43
2018-08-17T07:43:01.730Z,25.06
2018-08-17T07:45:30.986Z,25.11
2018-08-17T07:48:00.190Z,25.71
2018-08-17T07:50:29.439Z,26.04
2018-08-17T07:52:58.656Z,26.19
2018-08-17T07:55:28.122Z,26.94
2018-08-17T07:57:57.493Z,27.58
2018-08-17T08:00:26.783Z,27.11
2018-08-17T08:02:56.282Z,26.82
2018-08-17T08:05:25.575Z,27.75
2018-08-17T08:07:55.089Z,28.28
2018-08-17T08:10:24.349Z,27.66
2018-08-17T08:12:53.701Z,26.93
2018-08-17T08:15:23.040Z,28.61
2018-08-17T08:17:52.314Z,27.24
2018-08-17T08:20:34.646Z,29.62
2018-08-17T08:23:14.972Z,29.22
2018-08-17T08:25:44.452Z,27.24
2018-08-17T08:28:13.781Z,29.25
2018-08-17T08:30:43.117Z,27.54
2018-08-17T08:33:12.599Z,28.58
2018-08-17T08:35:42.201Z,28.12
2018-08-17T08:38:11.599Z,29.54
2018-08-17T08:40:41.060Z,29.54
2018-08-17T09:18:22.190Z,29.83
2018-08-17T09:20:51.982Z,30.91
2018-08-17T09:23:25.394Z,30.64
2018-08-17T09:25:55.910Z,30.67
2018-08-17T09:28:37.346Z,30.74
2018-08-17T09:31:07.767Z,31.38
2018-08-17T09:33:38.160Z,29.86
2018-08-17T09:36:12.935Z,28.98
2018-08-17T09:38:44.054Z,29.07
2018-08-17T09:41:18.422Z,30.35
2018-08-17T09:43:48.173Z,30.64
2018-08-17T09:46:18.610Z,30.80
2018-08-17T09:48:58.640Z,29.44
2018-08-17T09:51:29.056Z,29.64
2018-08-17T09:53:59.339Z,29.50
2018-08-17T09:56:31.958Z,30.36
2018-08-17T09:59:03.123Z,29.59
2018-08-17T10:03:40.623Z,29.18
2018-08-17T10:06:15.662Z,30.75
2018-08-17T10:08:49.996Z,30.70
2018-08-17T10:11:20.371Z,30.38
2018-08-17T10:13:52.416Z,31.60
2018-08-17T10:16:24.265Z,31.31
2018-08-17T10:18:55.541Z,30.55
2018-08-17T10:21:27.523Z,31.71
2018-08-17T10:23:57.068Z,31.16
2018-08-17T10:26:29.984Z,31.41
2018-08-17T10:29:01.244Z,30.99
2018-08-17T10:31:30.928Z,32.65
2018-08-17T10:34:00.384Z,33.21
2018-08-17T10:36:29.884Z,32.60
2018-08-17T10:38:59.804Z,32.81
2018-08-17T10:41:29.264Z,31.43
2018-08-17T10:43:58.512Z,30.78
2018-08-17T10:47:14.343Z,30.09
2018-08-17T10:49:49.692Z,30.59
2018-08-17T10:52:20.154Z,31.32
2018-08-17T10:54:49.467Z,31.57
2018-08-17T10:57:18.830Z,31.88
2018-08-17T10:59:48.139Z,31.01
2018-08-17T11:02:17.591Z,31.67
2018-08-17T11:04:48.568Z,31.36
2018-08-17T11:07:33.487Z,31.98
2018-08-17T11:10:15.420Z,31.21
2018-08-17T11:13:02.781Z,30.88
2018-08-17T11:15:49.389Z,31.54
2018-08-17T11:18:28.453Z,31.54
2018-08-17T11:21:15.045Z,32.07
2018-08-17T11:23:47.187Z,32.35
2018-08-17T11:29:01.418Z,32.22
2018-08-17T11:31:32.216Z,32.34
2018-08-17T11:34:03.706Z,31.65
2018-08-17T11:36:38.215Z,32.18
2018-08-17T11:39:11.821Z,32.68
2018-08-17T11:41:41.234Z,32.66
2018-08-17T11:44:14.241Z,32.50
2018-08-17T11:46:44.254Z,32.59
2018-08-17T11:49:13.823Z,33.27
2018-08-17T11:51:49.749Z,33.21
2018-08-17T11:54:19.687Z,33.19
2018-08-17T11:56:49.199Z,31.88
2018-08-17T11:59:18.571Z,32.76
2018-08-17T12:01:48.022Z,32.82
2018-08-17T12:04:17.416Z,31.89
2018-08-17T12:06:47.075Z,32.08
2018-08-17T12:09:16.829Z,33.32
2018-08-17T12:11:46.392Z,33.69
2018-08-17T12:14:15.858Z,34.03
2018-08-17T12:16:45.291Z,33.32
2018-08-17T12:19:15.238Z,34.82
2018-08-17T12:21:44.887Z,34.93
2018-08-17T12:24:14.523Z,34.54
2018-08-17T12:26:48.896Z,35.10
2018-08-17T12:29:20.268Z,34.62
2018-08-17T12:31:49.948Z,34.66
2018-08-17T12:34:19.685Z,34.23
2018-08-17T12:36:54.871Z,35.11
2018-08-17T12:39:24.465Z,35.43
2018-08-17T12:41:58.004Z,35.59
2018-08-17T12:44:28.831Z,35.26
2018-08-17T12:46:58.745Z,35.59
2018-08-17T12:49:29.619Z,34.94
2018-08-17T12:51:59.990Z,35.64
2018-08-17T12:54:34.063Z,35.60
2018-08-17T12:57:06.348Z,35.07
2018-08-17T12:59:40.786Z,34.43
2018-08-17T13:02:13.998Z,33.78
2018-08-17T13:04:47.011Z,33.30
2018-08-17T13:07:16.601Z,33.30
2018-08-17T13:09:53.317Z,33.33
2018-08-17T13:12:22.678Z,33.63
2018-08-17T13:14:53.100Z,32.96
2018-08-17T13:17:50.242Z,32.73
2018-08-17T13:20:20.117Z,33.08
2018-08-17T13:22:50.587Z,32.39
2018-08-17T13:25:20.813Z,32.38
2018-08-17T13:27:50.355Z,32.40
2018-08-17T13:30:19.701Z,32.18
2018-08-17T13:32:49.199Z,31.58
2018-08-17T13:35:18.632Z,31.95
2018-08-17T13:37:48.159Z,31.75
2018-08-17T13:40:17.743Z,32.04
2018-08-17T13:42:47.130Z,31.84
2018-08-17T13:45:16.597Z,31.75
2018-08-17T13:47:46.103Z,32.15
2018-08-17T13:50:15.402Z,32.79
2018-08-17T13:52:44.873Z,33.31
2018-08-17T13:55:14.270Z,33.37
2018-08-17T13:57:43.658Z,33.62
2018-08-17T14:00:13.328Z,33.15
2018-08-17T14:02:42.891Z,33.76
2018-08-17T14:05:12.754Z,33.65
2018-08-17T14:07:42.326Z,32.58
2018-08-17T14:10:12.304Z,32.89
2018-08-17T14:12:41.710Z,32.52
2018-08-17T14:15:14.207Z,32.93
2018-08-17T14:17:43.768Z,32.58
2018-08-17T14:20:15.701Z,32.62
2018-08-17T14:22:45.044Z,32.69
2018-08-17T14:25:14.326Z,32.51
2018-08-17T14:27:43.701Z,32.34
2018-08-17T14:30:16.358Z,32.37
2018-08-17T14:32:45.995Z,32.47
2018-08-17T14:35:15.699Z,31.23
2018-08-17T14:37:44.945Z,31.44
2018-08-17T14:40:14.290Z,31.64
2018-08-17T14:42:43.519Z,32.17
2018-08-17T14:45:12.896Z,32.00
2018-08-17T14:47:42.222Z,31.86
2018-08-17T14:50:13.392Z,31.50
2018-08-17T14:52:43.464Z,31.60
2018-08-17T14:55:13.242Z,32.10
2018-08-17T14:57:42.596Z,31.40
2018-08-17T15:00:14.359Z,30.70
2018-08-17T15:02:43.641Z,30.95
2018-08-17T15:05:15.217Z,30.90
2018-08-17T15:07:44.668Z,31.16
2018-08-17T15:10:14.987Z,30.98
2018-08-17T15:12:44.588Z,31.25
2018-08-17T15:15:14.340Z,31.32
2018-08-17T15:17:43.675Z,30.91
2018-08-17T15:20:13.978Z,30.75
2018-08-17T15:22:43.486Z,31.12
2018-08-17T15:25:12.848Z,31.88
2018-08-17T15:27:42.164Z,31.44
2018-08-17T15:30:12.661Z,31.77
2018-08-17T15:32:42.862Z,31.46
2018-08-17T15:35:12.393Z,30.93
2018-08-17T15:37:41.854Z,31.22
2018-08-17T15:40:12.657Z,31.01
2018-08-17T15:42:42.352Z,31.17
2018-08-17T15:45:11.975Z,31.37
2018-08-17T15:47:41.275Z,31.97
2018-08-17T15:50:21.402Z,31.54
2018-08-17T15:52:51.878Z,30.22
2018-08-17T15:55:21.656Z,30.93
2018-08-17T15:57:51.256Z,30.91
2018-08-17T16:00:21.191Z,31.36
2018-08-17T16:02:50.687Z,31.65
2018-08-17T16:05:20.068Z,31.36
2018-08-17T16:07:49.415Z,31.39
2018-08-17T16:10:18.913Z,31.46
2018-08-17T16:12:48.166Z,30.68
2018-08-17T16:15:17.511Z,30.30
2018-08-17T16:17:46.917Z,30.46
2018-08-17T16:20:16.273Z,30.20
2018-08-17T16:22:45.725Z,30.77
2018-08-17T16:25:14.947Z,30.86
2018-08-17T16:27:44.310Z,29.81
2018-08-17T16:30:15.116Z,29.84
2018-08-17T16:32:44.645Z,29.92
2018-08-17T16:35:14.406Z,29.61
2018-08-17T16:37:46.028Z,29.09
2018-08-17T16:40:15.461Z,28.53
2018-08-17T16:42:45.184Z,28.39
2018-08-17T16:45:14.635Z,28.79
2018-08-17T16:47:43.875Z,28.36
2018-08-17T16:50:15.033Z,28.32
2018-08-17T16:52:44.344Z,28.09
2018-08-17T16:55:13.692Z,28.10
2018-08-17T16:57:43.191Z,27.66
2018-08-17T17:00:12.761Z,27.94
2018-08-17T17:02:42.225Z,28.66
2018-08-17T17:05:11.665Z,28.24
2018-08-17T17:07:41.132Z,28.42
2018-08-17T17:10:11.325Z,28.15
2018-08-17T17:12:40.694Z,28.02
2018-08-17T17:15:26.031Z,27.75
2018-08-17T17:18:00.194Z,27.62
2018-08-17T17:20:39.283Z,27.44
2018-08-17T17:23:10.126Z,27.29
2018-08-17T17:25:40.191Z,27.09
2018-08-17T17:28:09.786Z,27.15
2018-08-17T17:30:45.079Z,26.90
2018-08-17T17:33:14.279Z,27.03
2018-08-17T17:35:44.823Z,26.41
2018-08-17T17:38:14.433Z,26.78
2018-08-17T17:40:43.913Z,26.90
2018-08-17T17:43:13.260Z,26.95
2018-08-17T17:45:42.656Z,27.16
2018-08-17T17:48:12.001Z,26.62
2018-08-17T17:50:42.076Z,26.64
2018-08-17T17:53:11.530Z,26.83
2018-08-17T17:55:45.927Z,26.59
2018-08-17T17:58:15.742Z,26.24
2018-08-17T18:00:55.963Z,26.10
2018-08-17T18:03:26.543Z,25.90
2018-08-17T18:06:05.693Z,25.72
2018-08-17T18:08:35.238Z,25.86
2018-08-17T18:11:04.694Z,25.80
2018-08-17T18:13:34.198Z,25.60
2018-08-17T18:16:03.632Z,25.75
2018-08-17T18:18:33.003Z,25.68
2018-08-17T18:21:02.441Z,25.50
2018-08-17T18:23:31.902Z,25.43
2018-08-17T18:26:01.501Z,25.46
2018-08-17T18:28:30.999Z,25.43
2018-08-17T18:31:00.515Z,25.53
2018-08-17T18:33:29.821Z,25.21
2018-08-17T18:35:59.055Z,25.06
2018-08-17T18:38:28.293Z,25.09
2018-08-17T18:40:57.712Z,24.92
2018-08-17T18:43:27.055Z,24.71
2018-08-17T18:45:56.329Z,25.11
2018-08-17T18:48:25.583Z,24.69
2018-08-17T18:50:54.849Z,25.00
2018-08-17T18:53:24.115Z,24.85
2018-08-17T18:55:53.245Z,24.99
2018-08-17T18:58:22.390Z,24.61
2018-08-17T19:00:51.703Z,24.63
2018-08-17T19:03:20.864Z,24.49
2018-08-17T19:05:50.149Z,24.44
2018-08-17T19:08:19.275Z,24.63
2018-08-17T19:10:48.503Z,24.33
2018-08-17T19:13:17.649Z,24.40
2018-08-17T19:15:51.835Z,24.67
2018-08-17T19:18:21.049Z,24.59
2018-08-17T19:20:50.350Z,24.45
2018-08-17T19:23:19.561Z,24.27
2018-08-17T19:25:48.763Z,24.44
2018-08-17T19:28:18.013Z,24.40
2018-08-17T19:30:47.266Z,24.46
2018-08-17T19:33:16.417Z,24.18
2018-08-17T19:35:46.827Z,24.13
2018-08-17T19:38:16.110Z,24.23
2018-08-17T19:40:45.517Z,24.27
2018-08-17T19:43:14.767Z,24.14
2018-08-17T19:45:44.000Z,24.14
2018-08-17T19:48:13.275Z,23.79
2018-08-17T19:50:42.465Z,24.24
2018-08-17T19:53:11.606Z,23.96
2018-08-17T19:55:40.911Z,24.01
2018-08-17T19:58:10.254Z,23.98
2018-08-17T20:00:39.425Z,23.82
2018-08-17T20:03:08.619Z,23.72
2018-08-17T20:05:37.963Z,23.71
2018-08-17T20:08:07.201Z,23.79
2018-08-17T20:10:36.990Z,23.59
2018-08-17T20:13:06.187Z,23.45
2018-08-17T20:15:35.503Z,23.52
2018-08-17T20:18:04.654Z,23.99
2018-08-17T20:20:33.795Z,23.73
2018-08-17T20:23:03.399Z,23.58
2018-08-17T20:25:32.633Z,23.46
2018-08-17T20:28:01.850Z,23.36
2018-08-17T20:30:31.068Z,23.27
2018-08-17T20:33:00.235Z,23.29
2018-08-17T20:35:29.422Z,23.56
2018-08-17T20:37:58.681Z,23.50
2018-08-17T20:40:27.848Z,23.63
2018-08-17T20:42:57.089Z,23.60
2018-08-17T20:45:27.252Z,23.58
2018-08-17T20:47:56.524Z,23.54
2018-08-17T20:50:25.673Z,23.33
2018-08-17T20:52:58.961Z,23.30
2018-08-17T20:55:28.237Z,23.48
2018-08-17T20:57:58.283Z,23.23
2018-08-17T21:00:28.847Z,23.15
2018-08-17T21:02:58.026Z,22.65
2018-08-17T21:05:27.218Z,23.07
2018-08-17T21:07:56.386Z,22.92
2018-08-17T21:10:25.521Z,22.95
2018-08-17T21:12:54.849Z,23.18
2018-08-17T21:15:23.993Z,23.03
2018-08-17T21:17:53.231Z,23.01
2018-08-17T21:20:22.392Z,23.05
2018-08-17T21:22:51.567Z,23.11
2018-08-17T21:25:20.807Z,22.81
2018-08-17T21:27:49.948Z,22.98
2018-08-17T21:30:19.090Z,22.99
2018-08-17T21:32:48.281Z,23.11
2018-08-17T21:35:17.430Z,22.93
2018-08-17T21:37:46.691Z,22.94
2018-08-17T21:40:30.682Z,23.08
2018-08-17T21:43:01.463Z,22.91
2018-08-17T21:45:30.926Z,22.58
2018-08-17T21:48:00.159Z,22.79
2018-08-17T21:50:29.259Z,22.38
2018-08-17T21:52:58.544Z,22.55
2018-08-17T21:55:27.698Z,22.52
2018-08-17T21:57:56.859Z,22.04
2018-08-17T22:00:36.465Z,22.66
2018-08-17T22:03:11.301Z,22.64
2018-08-17T22:05:40.864Z,22.76
2018-08-17T22:08:09.985Z,23.04
2018-08-17T22:10:39.173Z,22.37
2018-08-17T22:13:18.180Z,22.73
2018-08-17T22:15:47.393Z,22.08
2018-08-17T22:18:16.605Z,22.29
2018-08-17T22:20:45.706Z,22.61
2018-08-17T22:23:14.957Z,22.29
2018-08-17T22:25:44.084Z,22.59
2018-08-17T22:28:13.308Z,22.57
2018-08-17T22:30:42.478Z,22.18
2018-08-17T22:33:11.785Z,22.60
2018-08-17T22:35:41.024Z,22.55
2018-08-17T22:38:10.253Z,22.87
2018-08-17T22:40:39.462Z,22.52
2018-08-17T22:43:08.628Z,22.10
2018-08-17T22:45:37.739Z,22.62
2018-08-17T22:48:07.068Z,22.40
2018-08-17T22:50:36.163Z,22.06
2018-08-17T22:53:05.318Z,21.96
2018-08-17T22:55:34.555Z,22.50
2018-08-17T22:58:03.785Z,22.37
2018-08-17T23:00:32.981Z,22.72
2018-08-17T23:03:02.843Z,22.79
2018-08-17T23:05:35.538Z,22.15
2018-08-17T23:08:04.729Z,22.80
2018-08-17T23:10:33.899Z,22.51
2018-08-17T23:13:03.122Z,22.63
2018-08-17T23:15:32.222Z,22.41
2018-08-17T23:18:02.023Z,22.67
2018-08-17T23:20:34.074Z,22.83
2018-08-17T23:23:04.146Z,22.91
2018-08-17T23:25:33.574Z,22.76
2018-08-17T23:28:02.733Z,22.82
2018-08-17T23:30:31.908Z,22.63
2018-08-17T23:33:01.057Z,22.44
2018-08-17T23:35:30.308Z,22.14
2018-08-17T23:37:59.434Z,22.09
2018-08-17T23:40:28.634Z,21.95
2018-08-17T23:42:57.819Z,22.00
2018-08-17T23:45:26.938Z,22.07
2018-08-17T23:47:56.080Z,22.12
2018-08-17T23:50:25.275Z,22.12
2018-08-17T23:52:54.429Z,22.40
2018-08-17T23:55:23.661Z,22.51
2018-08-17T23:57:52.824Z,21.71
